Relevés horaires Bierset (Belgique)


Relevés horaires à Bierset - Samedi 24 Juin 2023
Heure UTC1 Température [°C] Vent [km/h] Hum. [%] Pres.4 [hPa] Visi. [Km] Nébu. [octa] Préc.5 [mm] Cond.
2m. Res. Ros. Dir.2 Vit. Moy. Raf.3
23:00 20.6 20.6 11.0 SE 3.7 3.7 20.4 54 1021.1(-0.5/3h) 40 0/8 -- --
22:00 21.8 21.8 7.7 E 3.7 3.7 5.6 40 1021.3(-0.5/3h) 40 0/8 -- --
21:00 22.7 22.7 10.0 NE 1.9 3.7 5.6 45 1021.3(-0.6/3h) 40 0/8 -- --
20:00 23.1 23.1 10.1 N 1.9 3.7 3.7 44 1021.5(-0.8/3h) 40 0/8 -- --
19:00 24.1 24.1 10.6 N 3.7 3.7 5.6 43 1021.6(-1.0/3h) 40 0/8 -- --
18:00 25.1 25.1 8.6 N 3.7 7.4 11.1 35 1021.8(-1.1/3h) 40 0/8 0/12h
--
17:00 25.5 25.5 8.7 NNO 5.6 5.6 9.3 34 1022.1(-1.3/3h) 40 1/8 -- --
16:00 25.7 25.7 10.0 NO 3.7 5.6 9.3 37 1022.5(-1.2/3h) 40 1/8 -- --
15:00 25.7 25.7 7.9 ONO 3.7 7.4 11.1 32 1022.9(-1.1/3h) 40 1/8 -- --
14:00 25.8 25.8 9.0 ONO 5.6 7.4 11.1 35 1023.4(-1.1/3h) 40 1/8 -- --
13:00 25.0 25.0 9.2 O 5.6 5.6 11.1 37 1023.8(-1.4/3h) 40 0/8 -- --
12:00 25.0 25.0 9.2 ONO 5.6 7.4 13.0 37 1024.1(-1.3/3h) 40 0/8 0/6h
--
11:00 24.3 24.3 10.6 NNO 3.7 5.6 9.3 42 1024.6(-1.0/3h) 40 0/8 -- --
10:00 23.4 23.4 9.7 O 5.6 7.4 9.3 42 1025.3(-0.2/3h) 40 0/8 -- --
09:00 21.8 21.8 10.6 NNO 5.6 5.6 13.0 49 1025.7(0.2/3h) 40 0/8 -- --
08:00 20.6 20.6 12.3 OSO 5.6 5.6 9.3 59 1025.8(0.0/3h) 20 0/8 -- --
07:00 19.5 19.5 11.1 SO 5.6 5.6 9.3 58 1025.8(0.5/3h) 20 0/8 -- --
06:00 17.8 17.8 12.9 SSO 5.6 5.6 13.0 73 1025.8(0.4/3h) 20 0/8 0/12h
--
05:00 16.7 16.7 13.7 S 3.7 3.7 7.4 82 1026.1(0.6/3h) 20 1/8 -- --
04:00 16.0 16.0 11.9 SSO 3.7 5.6 7.4 77 1025.6(-0.1/3h) 20 1/8 -- --
03:00 16.0 16.0 12.6 O 5.6 5.6 9.3 80 1025.5(0.1/3h) 20 2/8 -- --
02:00 16.8 16.8 14.1 O 5.6 5.6 7.4 84 1025.4(-0.1/3h) 16 4/8 -- --
01:00 17.1 17.1 14.3 OSO 1.9 3.7 5.6 84 1025.4(0.1/3h) 30 5/8 -- --
00:00 18.3 18.3 14.1 OSO 3.7 3.7 7.4 77 1025.5(0.0/3h) 30 5/8 0/6h
0/24h
--

1 Coordinated Universal Time. Actuellement il est 13:00 locale et 11:00 UTC.

2 Le vent souffle depuis la direction indiquée vers la direction oposée.

3 Les rafales max. sont disponible 40 min après l'heure du relevé.

4 Pour les stations d'altitude (plus de 600m) le géopotentiel du niveau le plus proche de la pression obligatoire est indiqué.

5 Les stations disposant d'un diffuseur peuvent indiquer "trace". Cela signifie que des précipitations ont touchés le sol mais que la quantité est inférieure à 0.1 mm.

Récapitulatif de la journée
Température [°C] Vent [km/h] Ensoleillement4 [h] Precipitations totale5 [mm] Pression [Hpa]
Min1 Max.2 Moy.3 Max. Min Max.
15.1 26.5 5.3 20.4 0 h 0 min 0 1021.1 1026.1

1 Température minimale relevée entre 18:00 UTC la veille et 18:00 UTC le jour donné.

2 Température maximale relevée entre 06:00 UTC le jour donné et 06:00 UTC le lendemain.

3 Vent moyen de la journée basé sur les relevés horaires.

4 Ensoleillement en heures relevé entre 06:00 UTC la veille et 06:00 UTC le jour donné.

5 Précipitations totales tombées entre 06:00 UTC la jour donné et 06:00 UTC le lendemain.

Graphiques horaires